Huvudsida
METAR-TAF:

METAR-TAF

Flygplatser :

Ljubljana Jože Pučniks flygplats

Ljubljana, Slovenien

latitud: 46-13N, longitud: 014-29E, höjd: 385 m

Aktuellt väderrapport

Denna rapport gjordes för 39 minuter sedan, klockan 21:30 UTC
Vind 5 kt från väst/nordväst
Temperatur 3°C
Fuktighet 65%
Tryck 1026 hPa
Sikt 10 km eller mer
Inga moln under 1 500 m eller inga cumulonimbus

METAR: LJLJ 082130Z 29005KT CAVOK 03/M03 Q1026 NOSIG

Tid: 00:09 (22:09 UTC)

Väderprognos

Denna rapport gjordes för 5 timmar och 9 minuter sedan, klockan 17:00 UTC
Prognos gäller från 08 kl. 18 UTC till 09 kl. 18 UTC
Vind 3 kt varierande vindriktning
Sikt 10 km eller mer
Inga moln under 1 500 m eller inga cumulonimbus

TAF: LJLJ 081700Z 0818/0918 VRB03KT CAVOK

Aktuella väderrapporter och prognoser från 4000 flygplatser (METAR- och TAF-rapporter).

De tillgängliga stationerna syns som gula och röda prickar på kartan.

För musen över prickarna för att se namnen på stationerna.

Klicka sedan för att få väderrapporter och prognoser.

För att ändra kartan: Klicka på de gröna knapparna med ett svart kors på för att zooma in; den gröna knappen med ett streck på för att zooma ut; eller på de gröna pilarna för angränsande kartor.


METAR-TAF: